N850CB KLAS-KSLC
Flight info
| Callsign | N850CB |
|---|---|
| Flight time | 0h 54m |
| Altitude | 33000 |
| Route | RATPK3 FRNCK DCT MLF QWENN6 |
| Aircraft | C700/L-SDE2E3FGHUTRWXY/LB1 |
Departure
| Time | 2026-05-04 04:27 |
|---|---|
| Airport | Harry Reid International Airport (KLAS) |
Arrival
| Time | 2026-05-04 05:21 |
|---|---|
| Airport | Salt Lake City International Airport (KSLC) |
| Time | Latitude | Longitude | Altitude | Speed | Heading |
|---|---|---|---|---|---|
| 2026-05-04 04:12 | 36.08320 | -115.13018 | 2078 ft | 0 kts | 209° |
| 2026-05-04 04:23 | 36.08289 | -115.13035 | 2081 ft | 14 kts | 195° |
| 2026-05-04 04:23 | 36.08149 | -115.13034 | 2093 ft | 24 kts | 179° |
| 2026-05-04 04:23 | 36.07968 | -115.13036 | 2107 ft | 14 kts | 179° |
| 2026-05-04 04:24 | 36.07895 | -115.13013 | 2111 ft | 9 kts | 181° |
| 2026-05-04 04:24 | 36.07807 | -115.13024 | 2115 ft | 15 kts | 178° |
| 2026-05-04 04:24 | 36.07755 | -115.12926 | 2116 ft | 21 kts | 89° |
| 2026-05-04 04:24 | 36.07754 | -115.12717 | 2113 ft | 26 kts | 90° |
| 2026-05-04 04:25 | 36.07755 | -115.12482 | 2114 ft | 30 kts | 87° |
| 2026-05-04 04:25 | 36.07756 | -115.12395 | 2115 ft | 3 kts | 94° |
| 2026-05-04 04:25 | 36.07754 | -115.12295 | 2115 ft | 22 kts | 91° |
| 2026-05-04 04:25 | 36.07746 | -115.12150 | 2116 ft | 9 kts | 120° |
| 2026-05-04 04:26 | 36.07647 | -115.12130 | 2119 ft | 20 kts | 206° |
| 2026-05-04 04:26 | 36.07641 | -115.12236 | 2118 ft | 12 kts | 272° |
| 2026-05-04 04:26 | 36.07641 | -115.12369 | 2116 ft | 27 kts | 269° |
| 2026-05-04 04:26 | 36.07639 | -115.12987 | 2117 ft | 119 kts | 269° |
| 2026-05-04 04:27 | 36.07652 | -115.14288 | 2525 ft | 177 kts | 269° |
| 2026-05-04 04:27 | 36.07666 | -115.16031 | 3331 ft | 228 kts | 268° |
| 2026-05-04 04:27 | 36.07659 | -115.18226 | 3994 ft | 278 kts | 268° |
| 2026-05-04 04:27 | 36.07652 | -115.20598 | 4604 ft | 270 kts | 269° |
| 2026-05-04 04:28 | 36.07652 | -115.22886 | 5023 ft | 267 kts | 268° |
| 2026-05-04 04:28 | 36.07908 | -115.25204 | 5027 ft | 282 kts | 286° |
| 2026-05-04 04:28 | 36.08919 | -115.27348 | 5027 ft | 299 kts | 307° |
| 2026-05-04 04:28 | 36.10636 | -115.28891 | 5161 ft | 318 kts | 334° |
| 2026-05-04 04:29 | 36.12858 | -115.29432 | 6605 ft | 339 kts | 357° |
| 2026-05-04 04:29 | 36.14434 | -115.29123 | 7664 ft | 354 kts | 17° |
| 2026-05-04 04:29 | 36.17165 | -115.26786 | 9883 ft | 368 kts | 53° |
| 2026-05-04 04:29 | 36.18299 | -115.24070 | 11493 ft | 354 kts | 73° |
| 2026-05-04 04:30 | 36.19008 | -115.21123 | 13221 ft | 362 kts | 77° |
| 2026-05-04 04:30 | 36.19442 | -115.19082 | 14331 ft | 365 kts | 81° |
| 2026-05-04 04:30 | 36.19699 | -115.14943 | 16526 ft | 364 kts | 94° |
| 2026-05-04 04:30 | 36.19642 | -115.12834 | 17709 ft | 362 kts | 95° |
| 2026-05-04 04:31 | 36.19576 | -115.09673 | 18849 ft | 378 kts | 94° |
| 2026-05-04 04:31 | 36.19586 | -115.06241 | 18969 ft | 417 kts | 92° |
| 2026-05-04 04:31 | 36.19636 | -115.02557 | 18981 ft | 435 kts | 92° |
| 2026-05-04 04:31 | 36.19648 | -114.98930 | 18966 ft | 417 kts | 94° |
| 2026-05-04 04:32 | 36.19622 | -114.95357 | 19621 ft | 407 kts | 93° |
| 2026-05-04 04:32 | 36.19868 | -114.91898 | 20934 ft | 404 kts | 83° |
| 2026-05-04 04:32 | 36.20587 | -114.88536 | 22422 ft | 402 kts | 72° |
| 2026-05-04 04:32 | 36.21722 | -114.85457 | 23844 ft | 395 kts | 59° |
| 2026-05-04 04:33 | 36.23230 | -114.82689 | 25176 ft | 380 kts | 47° |
| 2026-05-04 04:33 | 36.24904 | -114.80184 | 26597 ft | 364 kts | 46° |
| 2026-05-04 04:33 | 36.26442 | -114.77849 | 28022 ft | 345 kts | 45° |
| 2026-05-04 04:33 | 36.27973 | -114.75543 | 28675 ft | 358 kts | 44° |
| 2026-05-04 04:34 | 36.29640 | -114.73073 | 28698 ft | 389 kts | 45° |
| 2026-05-04 04:34 | 36.31437 | -114.70376 | 28692 ft | 421 kts | 46° |
| 2026-05-04 04:34 | 36.33348 | -114.67461 | 28689 ft | 451 kts | 46° |
| 2026-05-04 04:34 | 36.35404 | -114.64365 | 28652 ft | 478 kts | 46° |
| 2026-05-04 04:35 | 36.37781 | -114.61369 | 28654 ft | 496 kts | 35° |
| 2026-05-04 04:35 | 36.40561 | -114.58686 | 28653 ft | 518 kts | 31° |
| 2026-05-04 04:35 | 36.43496 | -114.55928 | 28660 ft | 541 kts | 32° |
| 2026-05-04 04:35 | 36.46535 | -114.53046 | 28651 ft | 556 kts | 32° |
| 2026-05-04 04:36 | 36.52553 | -114.47368 | 28659 ft | 548 kts | 35° |
| 2026-05-04 04:36 | 36.58892 | -114.42150 | 28655 ft | 542 kts | 24° |
| 2026-05-04 04:37 | 36.71601 | -114.32251 | 28671 ft | 534 kts | 25° |
| 2026-05-04 04:38 | 36.77896 | -114.27348 | 28708 ft | 532 kts | 26° |
| 2026-05-04 04:38 | 36.84162 | -114.22464 | 28705 ft | 529 kts | 25° |
| 2026-05-04 04:39 | 36.90396 | -114.17604 | 28706 ft | 528 kts | 26° |
| 2026-05-04 04:39 | 36.96642 | -114.12712 | 28733 ft | 530 kts | 25° |
| 2026-05-04 04:40 | 37.02895 | -114.07818 | 28730 ft | 530 kts | 26° |
| 2026-05-04 04:40 | 37.09149 | -114.02902 | 28737 ft | 531 kts | 26° |
| 2026-05-04 04:41 | 37.15361 | -113.98017 | 28774 ft | 531 kts | 26° |
| 2026-05-04 04:41 | 37.21615 | -113.93085 | 28775 ft | 531 kts | 26° |
| 2026-05-04 04:42 | 37.27873 | -113.88144 | 28787 ft | 531 kts | 26° |
| 2026-05-04 04:42 | 37.34123 | -113.83196 | 28798 ft | 531 kts | 27° |
| 2026-05-04 04:43 | 37.40376 | -113.78231 | 28809 ft | 530 kts | 26° |
| 2026-05-04 04:43 | 37.46613 | -113.73286 | 28811 ft | 529 kts | 26° |
| 2026-05-04 04:44 | 37.52836 | -113.68320 | 28820 ft | 529 kts | 27° |
| 2026-05-04 04:44 | 37.59064 | -113.63359 | 28839 ft | 529 kts | 28° |
| 2026-05-04 04:45 | 37.65273 | -113.58391 | 28842 ft | 528 kts | 28° |
| 2026-05-04 04:47 | 37.86828 | -113.41144 | 28877 ft | 520 kts | 30° |
| 2026-05-04 04:47 | 37.92876 | -113.36283 | 28867 ft | 516 kts | 30° |
| 2026-05-04 04:48 | 37.98918 | -113.31420 | 28832 ft | 513 kts | 30° |
| 2026-05-04 04:49 | 38.13877 | -113.19339 | 28840 ft | 506 kts | 31° |
| 2026-05-04 04:49 | 38.19785 | -113.14547 | 28884 ft | 502 kts | 31° |
| 2026-05-04 04:50 | 38.25668 | -113.09777 | 28912 ft | 499 kts | 32° |
| 2026-05-04 04:50 | 38.31495 | -113.05028 | 28958 ft | 495 kts | 33° |
| 2026-05-04 04:51 | 38.37404 | -113.00589 | 28960 ft | 492 kts | 23° |
| 2026-05-04 04:51 | 38.43660 | -112.97284 | 28971 ft | 489 kts | 22° |
| 2026-05-04 04:52 | 38.49935 | -112.93921 | 28973 ft | 492 kts | 22° |
| 2026-05-04 04:52 | 38.56310 | -112.90528 | 28933 ft | 501 kts | 22° |
| 2026-05-04 04:53 | 38.62789 | -112.87056 | 28883 ft | 508 kts | 23° |
| 2026-05-04 04:53 | 38.69355 | -112.83536 | 28809 ft | 514 kts | 23° |
| 2026-05-04 04:54 | 38.75948 | -112.79995 | 28804 ft | 512 kts | 23° |
| 2026-05-04 04:54 | 38.82518 | -112.76467 | 28782 ft | 514 kts | 23° |
| 2026-05-04 04:55 | 38.89147 | -112.72877 | 28791 ft | 519 kts | 23° |
| 2026-05-04 04:55 | 38.95796 | -112.69292 | 28795 ft | 517 kts | 23° |
| 2026-05-04 04:56 | 39.02354 | -112.65736 | 28578 ft | 503 kts | 23° |
| 2026-05-04 04:56 | 39.05570 | -112.63991 | 28439 ft | 500 kts | 23° |
| 2026-05-04 04:56 | 39.08772 | -112.62254 | 28305 ft | 497 kts | 23° |
| 2026-05-04 04:57 | 39.11952 | -112.60526 | 28169 ft | 495 kts | 23° |
| 2026-05-04 04:57 | 39.15112 | -112.58806 | 28035 ft | 492 kts | 23° |
| 2026-05-04 04:57 | 39.18261 | -112.57091 | 27902 ft | 490 kts | 23° |
| 2026-05-04 04:57 | 39.21396 | -112.55382 | 27778 ft | 488 kts | 23° |
| 2026-05-04 04:58 | 39.24505 | -112.53687 | 27779 ft | 483 kts | 23° |
| 2026-05-04 04:58 | 39.27588 | -112.52002 | 27779 ft | 480 kts | 23° |
| 2026-05-04 04:58 | 39.30658 | -112.50324 | 27774 ft | 478 kts | 23° |
| 2026-05-04 04:58 | 39.33698 | -112.48617 | 27779 ft | 476 kts | 24° |
| 2026-05-04 04:59 | 39.36710 | -112.46849 | 27796 ft | 474 kts | 24° |
| 2026-05-04 04:59 | 39.39703 | -112.45104 | 27866 ft | 471 kts | 24° |
| 2026-05-04 04:59 | 39.42698 | -112.43404 | 27871 ft | 470 kts | 23° |
| 2026-05-04 04:59 | 39.45655 | -112.41726 | 27871 ft | 469 kts | 23° |
| 2026-05-04 05:00 | 39.48630 | -112.40007 | 27877 ft | 468 kts | 24° |
| 2026-05-04 05:00 | 39.51605 | -112.38280 | 27874 ft | 468 kts | 24° |
| 2026-05-04 05:00 | 39.57496 | -112.34894 | 27317 ft | 455 kts | 23° |
| 2026-05-04 05:01 | 39.60391 | -112.33353 | 26921 ft | 445 kts | 18° |
| 2026-05-04 05:01 | 39.63336 | -112.32234 | 26539 ft | 436 kts | 13° |
| 2026-05-04 05:01 | 39.66261 | -112.31314 | 26159 ft | 429 kts | 12° |
| 2026-05-04 05:01 | 39.69164 | -112.30467 | 25591 ft | 427 kts | 11° |
| 2026-05-04 05:02 | 39.72081 | -112.29643 | 24865 ft | 429 kts | 11° |
| 2026-05-04 05:02 | 39.75008 | -112.28832 | 24160 ft | 431 kts | 11° |
| 2026-05-04 05:02 | 39.77942 | -112.28028 | 23475 ft | 431 kts | 11° |
| 2026-05-04 05:02 | 39.80879 | -112.27223 | 22685 ft | 430 kts | 11° |
| 2026-05-04 05:03 | 39.83804 | -112.26420 | 21897 ft | 429 kts | 11° |
| 2026-05-04 05:03 | 39.86727 | -112.25618 | 21124 ft | 427 kts | 11° |
| 2026-05-04 05:04 | 39.95389 | -112.23237 | 18924 ft | 421 kts | 11° |
| 2026-05-04 05:04 | 39.98238 | -112.22453 | 18227 ft | 418 kts | 11° |
| 2026-05-04 05:04 | 40.01074 | -112.21674 | 17619 ft | 413 kts | 11° |
| 2026-05-04 05:06 | 40.19864 | -112.16737 | 14147 ft | 381 kts | 11° |
| 2026-05-04 05:06 | 40.22464 | -112.16096 | 13680 ft | 378 kts | 11° |
| 2026-05-04 05:06 | 40.25041 | -112.15471 | 13168 ft | 377 kts | 11° |
| 2026-05-04 05:07 | 40.27617 | -112.14846 | 12656 ft | 376 kts | 11° |
| 2026-05-04 05:07 | 40.30183 | -112.14223 | 12152 ft | 375 kts | 11° |
| 2026-05-04 05:07 | 40.32730 | -112.13602 | 11931 ft | 367 kts | 11° |
| 2026-05-04 05:09 | 40.51286 | -112.09020 | 12005 ft | 344 kts | 11° |
| 2026-05-04 05:09 | 40.53659 | -112.08423 | 12025 ft | 351 kts | 11° |
| 2026-05-04 05:10 | 40.56112 | -112.08018 | 11785 ft | 363 kts | 2° |
| 2026-05-04 05:10 | 40.58700 | -112.08037 | 11304 ft | 377 kts | 358° |
| 2026-05-04 05:10 | 40.61314 | -112.08203 | 10826 ft | 375 kts | 356° |
| 2026-05-04 05:10 | 40.63910 | -112.08414 | 10353 ft | 373 kts | 356° |
| 2026-05-04 05:11 | 40.66494 | -112.08638 | 10035 ft | 367 kts | 356° |
| 2026-05-04 05:11 | 40.68995 | -112.08861 | 10025 ft | 354 kts | 356° |
| 2026-05-04 05:11 | 40.71410 | -112.09079 | 10008 ft | 343 kts | 356° |
| 2026-05-04 05:11 | 40.73764 | -112.09291 | 9876 ft | 338 kts | 356° |
| 2026-05-04 05:12 | 40.76081 | -112.09500 | 9349 ft | 330 kts | 356° |
| 2026-05-04 05:12 | 40.78327 | -112.09707 | 8857 ft | 325 kts | 356° |
| 2026-05-04 05:12 | 40.80569 | -112.09919 | 8357 ft | 321 kts | 356° |
| 2026-05-04 05:12 | 40.82778 | -112.10135 | 7870 ft | 317 kts | 356° |
| 2026-05-04 05:13 | 40.84973 | -112.10358 | 7380 ft | 314 kts | 355° |
| 2026-05-04 05:13 | 40.87138 | -112.10587 | 6995 ft | 309 kts | 356° |
| 2026-05-04 05:13 | 40.89217 | -112.10820 | 6978 ft | 291 kts | 356° |
| 2026-05-04 05:13 | 40.91182 | -112.11046 | 6959 ft | 277 kts | 356° |
| 2026-05-04 05:14 | 40.93067 | -112.11271 | 6948 ft | 266 kts | 355° |
| 2026-05-04 05:14 | 40.94883 | -112.11481 | 6942 ft | 258 kts | 356° |
| 2026-05-04 05:14 | 40.96655 | -112.11664 | 6951 ft | 252 kts | 1° |
| 2026-05-04 05:14 | 40.98289 | -112.11049 | 6963 ft | 244 kts | 34° |
| 2026-05-04 05:15 | 40.99363 | -112.09384 | 6978 ft | 239 kts | 67° |
| 2026-05-04 05:15 | 40.99651 | -112.07246 | 6993 ft | 235 kts | 88° |
| 2026-05-04 05:15 | 40.99662 | -112.05091 | 7002 ft | 233 kts | 90° |
| 2026-05-04 05:15 | 40.99644 | -112.02951 | 7006 ft | 232 kts | 91° |
| 2026-05-04 05:16 | 40.99629 | -112.01537 | 7007 ft | 231 kts | 91° |
| 2026-05-04 05:16 | 40.99511 | -111.98850 | 7143 ft | 220 kts | 100° |
| 2026-05-04 05:16 | 40.99178 | -111.97559 | 7073 ft | 221 kts | 123° |
| 2026-05-04 05:16 | 40.97542 | -111.96121 | 7063 ft | 219 kts | 171° |
| 2026-05-04 05:17 | 40.96027 | -111.96256 | 7062 ft | 218 kts | 192° |
| 2026-05-04 05:17 | 40.95025 | -111.96500 | 7049 ft | 216 kts | 184° |
| 2026-05-04 05:17 | 40.93532 | -111.96609 | 7046 ft | 215 kts | 178° |
| 2026-05-04 05:17 | 40.92074 | -111.96476 | 6991 ft | 194 kts | 175° |
| 2026-05-04 05:18 | 40.90814 | -111.96303 | 6827 ft | 173 kts | 173° |
| 2026-05-04 05:18 | 40.89654 | -111.96194 | 6609 ft | 166 kts | 179° |
| 2026-05-04 05:18 | 40.88519 | -111.96148 | 6382 ft | 160 kts | 178° |
| 2026-05-04 05:18 | 40.87426 | -111.96116 | 6072 ft | 155 kts | 181° |
| 2026-05-04 05:19 | 40.86341 | -111.96165 | 5614 ft | 155 kts | 182° |
| 2026-05-04 05:19 | 40.85276 | -111.96198 | 5335 ft | 149 kts | 182° |
| 2026-05-04 05:19 | 40.84338 | -111.96205 | 5196 ft | 123 kts | 180° |
| 2026-05-04 05:19 | 40.83525 | -111.96197 | 4953 ft | 112 kts | 182° |
| 2026-05-04 05:20 | 40.82743 | -111.96227 | 4838 ft | 121 kts | 182° |
| 2026-05-04 05:20 | 40.81887 | -111.96200 | 4699 ft | 116 kts | 178° |
| 2026-05-04 05:20 | 40.81064 | -111.96208 | 4510 ft | 124 kts | 182° |
| 2026-05-04 05:20 | 40.80246 | -111.96206 | 4337 ft | 120 kts | 181° |
| 2026-05-04 05:21 | 40.79422 | -111.96209 | 4233 ft | 109 kts | 181° |
| 2026-05-04 05:21 | 40.78779 | -111.96209 | 4227 ft | 76 kts | 180° |
| 2026-05-04 05:21 | 40.78323 | -111.96208 | 4222 ft | 43 kts | 179° |
| 2026-05-04 05:21 | 40.78241 | -111.96112 | 4220 ft | 18 kts | 90° |
| 2026-05-04 05:22 | 40.78241 | -111.95984 | 4218 ft | 12 kts | 88° |
| 2026-05-04 05:22 | 40.78251 | -111.95840 | 4220 ft | 18 kts | 72° |
| 2026-05-04 05:22 | 40.78265 | -111.95812 | 4221 ft | 0 kts | 30° |